Time;durP1;ratioP1;P1;durP2;ratioP2;P2;SDS_P1;SDS_P2;PMS_P1;PMS_P2;Temp;Humidity;BMP_temperature;BMP_pressure;BME280_temperature;BME280_humidity;BME280_pressure;Samples;Min_cycle;Max_cycle;Signal;HPM_P1;HPM_P2
2023/01/14 00:00:23;;;;;;;2.08;0.55;;;19.50;53.70;;;;;;6319005;28;20028;-66
2023/01/14 00:03:24;;;;;;;1.75;0.57;;;19.50;53.60;;;;;;6318677;28;20029;-65
2023/01/14 00:06:27;;;;;;;1.08;0.60;;;19.50;53.70;;;;;;6300582;28;20028;-66
2023/01/14 00:09:29;;;;;;;1.02;0.52;;;19.50;53.60;;;;;;6318705;28;20020;-66
2023/01/14 00:12:30;;;;;;;0.47;0.30;;;19.50;53.60;;;;;;6300701;28;20024;-66
2023/01/14 00:15:31;;;;;;;2.30;0.80;;;19.50;53.50;;;;;;6318493;28;20020;-66
2023/01/14 00:18:34;;;;;;;0.47;0.38;;;19.50;53.60;;;;;;6301495;28;20027;-66
2023/01/14 00:21:34;;;;;;;0.85;0.50;;;19.50;53.60;;;;;;6323593;28;20035;-66
2023/01/14 00:24:35;;;;;;;0.60;0.50;;;19.50;53.60;;;;;;6323071;28;20080;-65
2023/01/14 00:27:36;;;;;;;0.93;0.40;;;19.50;53.80;;;;;;6305197;28;20024;-66
2023/01/14 00:30:36;;;;;;;0.82;0.50;;;19.50;53.70;;;;;;6323265;28;20075;-66
2023/01/14 00:33:38;;;;;;;1.25;0.50;;;19.50;53.70;;;;;;6323189;28;20488;-67
2023/01/14 00:36:39;;;;;;;1.58;0.50;;;19.50;53.70;;;;;;6304843;28;20052;-66
2023/01/14 00:39:39;;;;;;;1.90;0.60;;;19.50;53.50;;;;;;6304873;28;20046;-66
2023/01/14 00:42:40;;;;;;;0.80;0.40;;;19.50;53.40;;;;;;6323056;28;20388;-66
2023/01/14 00:45:40;;;;;;;2.78;0.50;;;19.50;53.70;;;;;;6322661;28;20070;-66
2023/01/14 00:48:42;;;;;;;2.08;0.60;;;19.50;53.70;;;;;;6322720;28;20484;-66
2023/01/14 00:51:43;;;;;;;1.02;0.57;;;19.50;53.60;;;;;;6304577;28;20611;-66
2023/01/14 00:54:43;;;;;;;1.48;0.50;;;19.50;53.90;;;;;;6322336;28;20028;-66
2023/01/14 00:57:44;;;;;;;1.65;0.50;;;19.50;53.70;;;;;;6322667;28;20016;-66
2023/01/14 01:00:45;;;;;;;1.33;0.50;;;19.50;53.90;;;;;;6304550;28;20101;-66
2023/01/14 01:03:51;;;;;;;1.00;0.50;;;19.50;53.70;;;;;;6322570;28;20176;-66
2023/01/14 01:06:52;;;;;;;0.55;0.28;;;19.50;53.70;;;;;;6322302;28;20036;-65
2023/01/14 01:09:53;;;;;;;1.40;0.65;;;19.50;53.60;;;;;;6304298;28;20032;-66
2023/01/14 01:12:53;;;;;;;1.65;0.65;;;19.50;53.70;;;;;;6322277;28;20027;-66
2023/01/14 01:15:59;;;;;;;1.85;0.60;;;19.50;53.60;;;;;;6322111;28;20017;-66
2023/01/14 01:19:00;;;;;;;0.88;0.50;;;19.50;53.80;;;;;;6322148;28;20016;-66
2023/01/14 01:22:01;;;;;;;0.98;0.50;;;19.50;53.70;;;;;;6321872;28;20089;-65
2023/01/14 01:25:01;;;;;;;0.90;0.40;;;19.50;53.80;;;;;;6322007;28;20035;-66
2023/01/14 01:28:02;;;;;;;1.10;0.43;;;19.50;53.80;;;;;;6321899;28;20062;-66
2023/01/14 01:31:07;;;;;;;0.90;0.35;;;19.50;53.90;;;;;;6321750;28;20111;-67
2023/01/14 01:34:07;;;;;;;0.68;0.30;;;19.50;53.80;;;;;;6321741;28;20016;-66
2023/01/14 01:37:08;;;;;;;0.60;0.40;;;19.50;53.90;;;;;;6321784;28;20046;-66
2023/01/14 01:40:10;;;;;;;0.50;0.40;;;19.50;53.90;;;;;;6321518;28;20028;-66
2023/01/14 01:43:12;;;;;;;0.95;0.50;;;19.50;54.00;;;;;;6321863;28;20042;-65
2023/01/14 01:46:13;;;;;;;0.38;0.38;;;19.50;54.00;;;;;;6320861;28;20028;-66
2023/01/14 01:49:17;;;;;;;0.47;0.30;;;19.50;53.90;;;;;;6321420;28;20027;-66
2023/01/14 01:52:29;;;;;;;1.27;0.60;;;19.50;54.00;;;;;;6321392;28;20057;-65
2023/01/14 01:55:32;;;;;;;0.68;0.30;;;19.50;54.00;;;;;;6321294;28;20051;-66
2023/01/14 01:58:34;;;;;;;1.33;0.50;;;19.50;54.00;;;;;;6302866;28;20087;-66
2023/01/14 02:01:37;;;;;;;0.80;0.40;;;19.50;53.90;;;;;;6321303;28;20481;-65
2023/01/14 02:04:38;;;;;;;0.75;0.30;;;19.50;54.00;;;;;;6321028;28;20485;-66
2023/01/14 02:07:38;;;;;;;1.23;0.50;;;19.50;54.00;;;;;;6321131;28;20031;-66
2023/01/14 02:11:08;;;;;;;1.75;0.50;;;19.50;54.00;;;;;;6303066;28;20036;-67
2023/01/14 02:14:09;;;;;;;1.30;0.50;;;19.50;54.10;;;;;;6269414;28;20032;-67
2023/01/14 02:17:12;;;;;;;1.25;0.50;;;19.50;54.10;;;;;;6319127;28;20118;-67
2023/01/14 02:20:38;;;;;;;0.80;0.40;;;19.50;53.90;;;;;;6317169;28;20035;-67
2023/01/14 02:23:38;;;;;;;1.67;0.45;;;19.50;53.90;;;;;;6322061;28;20036;-67
2023/01/14 02:27:03;;;;;;;1.70;0.40;;;19.50;53.90;;;;;;6321967;28;20028;-67
2023/01/14 02:30:17;;;;;;;1.05;0.40;;;19.40;53.90;;;;;;6318600;28;20039;-67
2023/01/14 02:33:33;;;;;;;1.90;0.50;;;19.40;53.90;;;;;;6318981;28;20546;-67
2023/01/14 02:36:38;;;;;;;;;;;19.50;54.00;;;;;;6318979;28;20024;-67
2023/01/14 02:40:03;;;;;;;1.30;0.43;;;19.50;53.90;;;;;;6300772;28;20393;-67
2023/01/14 02:46:35;;;;;;;1.30;0.60;;;19.50;53.90;;;;;;6311288;28;20032;-67
2023/01/14 02:49:43;;;;;;;1.20;0.60;;;19.50;54.00;;;;;;6318417;28;20024;-67
2023/01/14 02:52:45;;;;;;;2.70;0.68;;;19.40;53.90;;;;;;6317847;28;20028;-67
2023/01/14 02:55:47;;;;;;;0.98;0.40;;;19.40;53.80;;;;;;6317987;28;20360;-67
2023/01/14 02:59:25;;;;;;;1.35;0.40;;;19.50;53.90;;;;;;6318114;28;20118;-67
2023/01/14 03:02:56;;;;;;;0.75;0.30;;;19.40;53.90;;;;;;6318394;28;20031;-67
2023/01/14 03:05:57;;;;;;;0.32;0.20;;;19.40;53.90;;;;;;6318028;28;20020;-68
2023/01/14 03:09:20;;;;;;;0.70;0.40;;;19.40;54.00;;;;;;6317902;28;20055;-67
2023/01/14 03:12:47;;;;;;;1.95;0.68;;;19.40;53.90;;;;;;6318118;28;20109;-67
2023/01/14 03:16:12;;;;;;;0.57;0.30;;;19.50;54.10;;;;;;6299664;28;20491;-67
2023/01/14 03:19:37;;;;;;;1.30;0.52;;;19.50;54.10;;;;;;6318212;28;20020;-68
2023/01/14 03:22:40;;;;;;;0.80;0.40;;;19.40;53.90;;;;;;6317055;28;20110;-67
2023/01/14 03:25:46;;;;;;;0.82;0.40;;;19.40;54.00;;;;;;6299493;28;20024;-67
2023/01/14 03:28:47;;;;;;;0.70;0.40;;;19.40;54.00;;;;;;6299637;28;20062;-68
2023/01/14 03:32:02;;;;;;;0.60;0.30;;;19.40;54.10;;;;;;6317296;28;20031;-67
2023/01/14 03:35:08;;;;;;;0.80;0.43;;;19.50;54.10;;;;;;6317856;28;20026;-67
2023/01/14 03:38:12;;;;;;;0.50;0.30;;;19.40;54.00;;;;;;6317327;28;20023;-67
2023/01/14 03:42:17;;;;;;;0.63;0.40;;;19.50;54.10;;;;;;6317597;28;20054;-67
2023/01/14 03:44:57;;;;;;;0.80;0.50;;;19.40;54.10;;;;;;6317016;28;20128;-68
2023/01/14 03:47:58;;;;;;;0.85;0.50;;;19.50;54.00;;;;;;6317340;28;20031;-67
2023/01/14 03:51:17;;;;;;;1.30;0.50;;;19.40;54.00;;;;;;6316896;28;20512;-67
2023/01/14 03:54:23;;;;;;;0.70;0.40;;;19.50;54.10;;;;;;6319964;28;20028;-68
2023/01/14 03:57:44;;;;;;;0.38;0.30;;;19.40;54.00;;;;;;6322264;28;20036;-67
2023/01/14 04:00:53;;;;;;;1.25;0.30;;;19.50;54.10;;;;;;6322111;28;20020;-67
2023/01/14 04:03:54;;;;;;;1.20;0.40;;;19.50;54.20;;;;;;6322442;28;20023;-67
2023/01/14 04:06:55;;;;;;;1.15;0.50;;;19.50;54.10;;;;;;6304040;28;20016;-67
2023/01/14 04:09:56;;;;;;;1.70;0.52;;;19.50;54.10;;;;;;6321916;28;20039;-67
2023/01/14 04:16:16;;;;;;;0.55;0.30;;;19.50;54.20;;;;;;6321258;28;20016;-67
2023/01/14 04:19:16;;;;;;;0.55;0.30;;;19.40;54.00;;;;;;6321988;28;20023;-67
2023/01/14 04:22:17;;;;;;;0.55;0.40;;;19.40;54.00;;;;;;6321605;28;20480;-67
2023/01/14 04:25:18;;;;;;;1.33;0.40;;;19.40;54.20;;;;;;6321723;28;20085;-67
2023/01/14 04:28:18;;;;;;;0.93;0.40;;;19.40;54.00;;;;;;6321610;28;20504;-67
2023/01/14 04:31:19;;;;;;;2.28;0.50;;;19.40;54.10;;;;;;6321374;28;20099;-67
2023/01/14 04:34:19;;;;;;;0.30;0.25;;;19.40;54.40;;;;;;6321685;28;20480;-67
2023/01/14 04:37:20;;;;;;;0.20;0.20;;;19.40;54.10;;;;;;6321540;28;20041;-67
2023/01/14 04:40:22;;;;;;;1.08;0.30;;;19.40;54.00;;;;;;6321465;28;20024;-67
2023/01/14 04:43:23;;;;;;;1.55;0.32;;;19.40;54.10;;;;;;6321040;28;20047;-67
2023/01/14 04:46:24;;;;;;;1.02;0.50;;;19.50;54.20;;;;;;6321223;28;20028;-67
2023/01/14 04:49:24;;;;;;;1.58;0.40;;;19.50;54.20;;;;;;6321333;28;20148;-67
2023/01/14 04:52:25;;;;;;;1.27;0.45;;;19.40;54.10;;;;;;6321152;28;20252;-68
2023/01/14 04:55:25;;;;;;;0.52;0.40;;;19.40;54.10;;;;;;6321218;28;20020;-67
2023/01/14 04:58:26;;;;;;;0.90;0.35;;;19.40;54.10;;;;;;6302837;28;20031;-67
2023/01/14 05:01:28;;;;;;;0.88;0.40;;;19.50;54.20;;;;;;6321159;28;20534;-67
2023/01/14 05:04:30;;;;;;;0.93;0.40;;;19.40;54.20;;;;;;6319943;28;20036;-67
2023/01/14 05:07:31;;;;;;;0.68;0.30;;;19.50;54.30;;;;;;6321125;28;20024;-67
2023/01/14 05:10:32;;;;;;;0.85;0.30;;;19.40;54.10;;;;;;6320861;28;20524;-67
2023/01/14 05:13:33;;;;;;;0.98;0.32;;;19.40;54.10;;;;;;6320525;28;20606;-67
2023/01/14 05:16:34;;;;;;;1.70;0.65;;;19.40;54.10;;;;;;6320333;28;20024;-67
2023/01/14 05:19:34;;;;;;;0.30;0.20;;;19.40;54.20;;;;;;6320277;28;20635;-67
2023/01/14 05:22:35;;;;;;;0.68;0.28;;;19.40;54.10;;;;;;6319998;28;20101;-67
2023/01/14 05:25:36;;;;;;;0.80;0.50;;;19.40;54.00;;;;;;6320548;28;20031;-67
2023/01/14 05:28:36;;;;;;;0.85;0.40;;;19.40;54.10;;;;;;6302089;28;20111;-67
2023/01/14 05:31:37;;;;;;;0.30;0.30;;;19.40;54.10;;;;;;6320573;28;20032;-67
2023/01/14 05:34:38;;;;;;;1.50;0.40;;;19.40;54.00;;;;;;6301961;28;20086;-67
2023/01/14 05:37:38;;;;;;;0.80;0.20;;;19.40;54.10;;;;;;6319407;28;20044;-67
2023/01/14 05:40:39;;;;;;;0.65;0.30;;;19.40;54.10;;;;;;6320387;28;20032;-67
2023/01/14 05:46:59;;;;;;;0.65;0.25;;;19.40;54.00;;;;;;6319932;28;20028;-67
2023/01/14 05:50:00;;;;;;;0.73;0.40;;;19.40;54.10;;;;;;6319424;28;20472;-67
2023/01/14 05:53:00;;;;;;;1.75;0.45;;;19.40;54.10;;;;;;6319990;28;20680;-67
2023/01/14 05:56:01;;;;;;;0.90;0.38;;;19.40;54.00;;;;;;6319444;28;20503;-67
2023/01/14 05:59:01;;;;;;;0.90;0.43;;;19.40;54.10;;;;;;6319562;28;20024;-67
2023/01/14 06:08:40;;;;;;;0.80;0.40;;;19.40;54.10;;;;;;6319217;28;20412;-67
2023/01/14 06:12:01;;;;;;;1.00;0.45;;;19.40;54.10;;;;;;6303968;28;20039;-67
2023/01/14 06:15:03;;;;;;;0.52;0.22;;;19.40;54.10;;;;;;6318925;28;20031;-68
2023/01/14 06:18:13;;;;;;;1.38;0.50;;;19.40;54.20;;;;;;6318199;28;20066;-67
2023/01/14 06:21:17;;;;;;;1.00;0.30;;;19.40;54.20;;;;;;6319057;28;20035;-67
2023/01/14 06:24:17;;;;;;;0.85;0.40;;;19.50;54.20;;;;;;6300793;28;20329;-67
2023/01/14 06:27:18;;;;;;;0.65;0.30;;;19.40;54.20;;;;;;6318701;28;20032;-67
2023/01/14 06:30:19;;;;;;;0.50;0.30;;;19.40;54.10;;;;;;6319198;28;20678;-67
2023/01/14 06:33:20;;;;;;;0.77;0.40;;;19.50;54.10;;;;;;6318490;28;20028;-67
2023/01/14 06:36:20;;;;;;;1.15;0.32;;;19.50;54.20;;;;;;6318888;28;20429;-67
2023/01/14 06:39:21;;;;;;;1.25;0.50;;;19.40;54.10;;;;;;6318699;28;20221;-67
2023/01/14 06:42:22;;;;;;;0.88;0.40;;;19.40;54.10;;;;;;6318707;28;20093;-67
2023/01/14 06:45:24;;;;;;;0.70;0.30;;;19.40;54.10;;;;;;6300350;28;20437;-67
2023/01/14 06:48:25;;;;;;;2.60;0.30;;;19.40;54.10;;;;;;6318645;28;20020;-67
2023/01/14 06:51:26;;;;;;;0.73;0.35;;;19.40;54.10;;;;;;6300309;28;20703;-67
2023/01/14 06:54:26;;;;;;;0.73;0.30;;;19.40;54.10;;;;;;6300242;28;20020;-67
2023/01/14 06:57:27;;;;;;;1.63;0.47;;;19.40;54.10;;;;;;6317753;28;20649;-67
2023/01/14 07:00:28;;;;;;;1.35;0.30;;;19.40;54.80;;;;;;6318264;28;20028;-67
2023/01/14 07:03:29;;;;;;;0.57;0.25;;;19.40;54.10;;;;;;6318013;28;20411;-67
2023/01/14 07:06:30;;;;;;;0.55;0.32;;;19.40;54.20;;;;;;6318043;28;20024;-67
2023/01/14 07:09:31;;;;;;;1.00;0.50;;;19.50;54.20;;;;;;6299832;28;20059;-67
2023/01/14 07:12:31;;;;;;;0.80;0.30;;;19.40;54.00;;;;;;6318076;28;20481;-67
2023/01/14 07:15:32;;;;;;;0.40;0.30;;;19.40;54.20;;;;;;6299321;28;20024;-68
2023/01/14 07:18:32;;;;;;;0.70;0.38;;;19.40;54.10;;;;;;6317408;28;20024;-67
2023/01/14 07:21:33;;;;;;;0.73;0.40;;;19.50;54.30;;;;;;6317422;28;20035;-67
2023/01/14 07:24:37;;;;;;;0.50;0.30;;;19.40;54.20;;;;;;6299068;28;20036;-67
2023/01/14 07:27:38;;;;;;;0.63;0.30;;;19.40;54.20;;;;;;6317422;28;20472;-67
2023/01/14 07:30:39;;;;;;;1.15;0.50;;;19.40;54.30;;;;;;6317538;28;20081;-67
2023/01/14 07:33:39;;;;;;;1.23;0.45;;;19.50;54.30;;;;;;6317544;28;20028;-67
2023/01/14 07:36:40;;;;;;;0.20;0.20;;;19.40;54.20;;;;;;6317619;28;20142;-67
2023/01/14 07:39:41;;;;;;;0.20;0.20;;;19.40;54.90;;;;;;6317358;28;20024;-68
2023/01/14 07:42:41;;;;;;;1.48;0.45;;;19.40;54.30;;;;;;6317564;28;20024;-67
2023/01/14 07:45:42;;;;;;;0.57;0.35;;;19.40;54.30;;;;;;6317312;28;20103;-68
2023/01/14 07:48:44;;;;;;;0.65;0.40;;;19.40;54.30;;;;;;6317233;28;20522;-67
2023/01/14 07:51:45;;;;;;;0.60;0.30;;;19.40;54.30;;;;;;6316998;28;20099;-67
2023/01/14 07:54:46;;;;;;;1.33;0.50;;;19.40;54.30;;;;;;6298568;28;20031;-67
2023/01/14 07:57:47;;;;;;;1.67;0.50;;;19.50;54.40;;;;;;6317074;28;20016;-67
2023/01/14 08:00:48;;;;;;;0.95;0.40;;;19.40;54.30;;;;;;6316860;28;20054;-67
2023/01/14 08:03:49;;;;;;;1.15;0.30;;;19.50;54.40;;;;;;6317234;28;20036;-67
2023/01/14 08:06:50;;;;;;;0.50;0.40;;;19.40;54.30;;;;;;6317039;28;20468;-67
2023/01/14 08:09:51;;;;;;;0.30;0.20;;;19.40;54.40;;;;;;6316980;28;20029;-67
2023/01/14 08:12:52;;;;;;;0.60;0.38;;;19.40;54.40;;;;;;6316993;28;20089;-67
2023/01/14 08:15:57;;;;;;;0.40;0.40;;;19.40;54.40;;;;;;6298824;28;20028;-67
2023/01/14 08:18:58;;;;;;;0.40;0.30;;;19.40;54.30;;;;;;6316811;28;20031;-67
2023/01/14 08:21:59;;;;;;;0.93;0.35;;;19.40;55.10;;;;;;6317098;28;20032;-67
2023/01/14 08:24:59;;;;;;;0.22;0.13;;;19.40;54.40;;;;;;6316723;28;20512;-67
2023/01/14 08:28:00;;;;;;;0.88;0.40;;;19.40;54.50;;;;;;6299001;28;20020;-67
2023/01/14 08:31:07;;;;;;;1.25;0.43;;;19.40;54.50;;;;;;6316656;28;20070;-67
2023/01/14 08:34:08;;;;;;;1.20;0.60;;;19.40;54.30;;;;;;6317236;28;20024;-67
2023/01/14 08:37:08;;;;;;;0.70;0.30;;;19.40;54.50;;;;;;6316793;28;20553;-67
2023/01/14 08:40:10;;;;;;;0.32;0.32;;;19.50;54.50;;;;;;6301034;28;20511;-67
2023/01/14 08:43:10;;;;;;;0.40;0.28;;;19.40;54.40;;;;;;6321397;28;20024;-67
2023/01/14 08:46:11;;;;;;;0.85;0.35;;;19.40;54.40;;;;;;6321093;28;20073;-67
2023/01/14 08:49:12;;;;;;;0.45;0.20;;;19.40;54.40;;;;;;6320923;28;20143;-67
2023/01/14 08:52:13;;;;;;;0.65;0.40;;;19.40;54.40;;;;;;6321016;28;20103;-67
2023/01/14 08:55:13;;;;;;;1.50;0.30;;;19.40;54.50;;;;;;6321330;28;20024;-67
2023/01/14 08:58:14;;;;;;;1.02;0.30;;;19.40;54.50;;;;;;6321124;28;20016;-67
2023/01/14 09:01:15;;;;;;;1.38;0.40;;;19.40;54.50;;;;;;6320949;28;20059;-67
2023/01/14 09:04:15;;;;;;;0.73;0.32;;;19.40;54.40;;;;;;6320673;28;20553;-67
2023/01/14 09:17:17;;;;;;;0.75;0.30;;;19.40;54.50;;;;;;6307498;28;20016;-67
2023/01/14 09:20:18;;;;;;;0.30;0.20;;;19.40;54.50;;;;;;6320580;28;20032;-67
2023/01/14 09:23:19;;;;;;;0.63;0.20;;;19.40;54.50;;;;;;6319979;28;20550;-67
2023/01/14 09:26:20;;;;;;;0.50;0.30;;;19.40;54.40;;;;;;6320407;28;20043;-67
2023/01/14 09:29:21;;;;;;;1.23;0.30;;;19.40;54.50;;;;;;6320142;28;20031;-68
2023/01/14 09:32:21;;;;;;;2.28;0.30;;;19.40;54.40;;;;;;6320455;28;20484;-67
2023/01/14 09:35:22;;;;;;;0.68;0.30;;;19.40;54.40;;;;;;6320388;28;20028;-67
2023/01/14 09:38:23;;;;;;;0.88;0.32;;;19.40;54.50;;;;;;6320757;28;20655;-67
2023/01/14 09:41:28;;;;;;;0.40;0.30;;;19.40;54.50;;;;;;6319859;28;20024;-67
2023/01/14 09:44:29;;;;;;;0.75;0.40;;;19.40;54.60;;;;;;6320313;28;20537;-67
2023/01/14 09:47:30;;;;;;;0.50;0.30;;;19.50;54.60;;;;;;6319929;28;20028;-67
2023/01/14 09:50:53;;;;;;;0.45;0.20;;;19.40;54.50;;;;;;6319800;28;20029;-67
2023/01/14 09:54:28;;;;;;;0.40;0.20;;;19.40;54.50;;;;;;6319534;28;20012;-67
2023/01/14 09:57:50;;;;;;;1.02;0.22;;;19.40;54.50;;;;;;6303664;28;20085;-67
2023/01/14 10:01:19;;;;;;;1.40;0.40;;;19.40;54.40;;;;;;6319545;28;20489;-67
2023/01/14 10:04:28;;;;;;;0.93;0.40;;;19.40;54.50;;;;;;6304818;28;20036;-67
2023/01/14 10:07:30;;;;;;;0.82;0.30;;;19.40;54.50;;;;;;6319553;28;20081;-67
2023/01/14 10:10:36;;;;;;;1.23;0.35;;;19.50;54.60;;;;;;6318238;28;20024;-71
2023/01/14 10:13:43;;;;;;;0.45;0.22;;;19.40;54.60;;;;;;6292957;28;20020;-68
2023/01/14 10:17:16;;;;;;;1.33;0.30;;;19.40;55.30;;;;;;6317053;28;20912;-68
2023/01/14 10:20:24;;;;;;;1.02;0.30;;;19.40;54.70;;;;;;6293338;28;20039;-68
2023/01/14 10:23:33;;;;;;;1.20;0.40;;;19.40;54.70;;;;;;6328511;28;20035;-68
2023/01/14 10:26:33;;;;;;;0.30;0.20;;;19.40;54.80;;;;;;6315309;28;20028;-68
2023/01/14 10:29:34;;;;;;;1.25;0.35;;;19.40;54.70;;;;;;6322145;28;20020;-66
2023/01/14 10:32:35;;;;;;;1.23;0.50;;;19.40;54.80;;;;;;6297684;28;20028;-67
2023/01/14 10:35:39;;;;;;;0.65;0.40;;;19.40;54.80;;;;;;6318589;28;20542;-67
2023/01/14 10:38:42;;;;;;;0.43;0.30;;;19.40;54.80;;;;;;6320195;28;20059;-70
2023/01/14 10:41:48;;;;;;;0.90;0.40;;;19.50;54.90;;;;;;6314089;28;20369;-69
2023/01/14 10:44:49;;;;;;;0.55;0.30;;;19.40;54.80;;;;;;6337239;28;20024;-68
2023/01/14 10:47:55;;;;;;;1.55;0.57;;;19.40;54.80;;;;;;6311110;28;20023;-68
2023/01/14 10:51:49;;;;;;;0.43;0.20;;;19.40;54.80;;;;;;6317444;28;20103;-69
2023/01/14 10:54:56;;;;;;;0.90;0.50;;;19.40;54.80;;;;;;6301413;28;20110;-68
2023/01/14 10:58:06;;;;;;;0.88;0.32;;;19.40;54.80;;;;;;6298495;28;20015;-68
2023/01/14 11:01:08;;;;;;;0.82;0.30;;;19.40;54.90;;;;;;6317371;28;20420;-68
2023/01/14 11:04:12;;;;;;;0.82;0.43;;;19.40;54.90;;;;;;6315786;28;20127;-68
2023/01/14 11:07:24;;;;;;;1.00;0.38;;;19.40;54.90;;;;;;6282906;28;20029;-68
2023/01/14 11:10:28;;;;;;;2.10;0.63;;;19.40;54.90;;;;;;6313842;28;20507;-68
2023/01/14 11:13:41;;;;;;;1.05;0.30;;;19.40;54.90;;;;;;6316715;28;20358;-69
2023/01/14 11:16:42;;;;;;;1.13;0.40;;;19.40;54.90;;;;;;6314696;28;20028;-66
2023/01/14 11:19:43;;;;;;;0.90;0.40;;;19.40;54.90;;;;;;6300193;28;20034;-67
2023/01/14 11:22:44;;;;;;;2.75;0.47;;;19.40;54.90;;;;;;6317610;28;20047;-67
2023/01/14 11:25:49;;;;;;;1.30;0.60;;;19.40;55.00;;;;;;6317873;28;20264;-67
2023/01/14 11:28:52;;;;;;;1.65;0.40;;;19.40;55.70;;;;;;6318031;28;20059;-66
2023/01/14 11:32:04;;;;;;;1.85;0.52;;;19.40;55.00;;;;;;6318005;28;20047;-67
2023/01/14 11:35:20;;;;;;;0.95;0.45;;;19.40;55.00;;;;;;6299117;28;20481;-67
2023/01/14 11:38:25;;;;;;;1.10;0.40;;;19.40;55.00;;;;;;6317997;28;20020;-66
2023/01/14 11:41:39;;;;;;;1.25;0.40;;;19.40;55.00;;;;;;6314889;28;20111;-67
2023/01/14 11:44:40;;;;;;;0.65;0.35;;;19.40;55.00;;;;;;6299165;28;20032;-67
2023/01/14 11:47:51;;;;;;;2.85;0.70;;;19.50;55.00;;;;;;6312407;28;20118;-66
2023/01/14 11:51:05;;;;;;;1.90;0.50;;;19.40;54.90;;;;;;6314704;28;20024;-66
2023/01/14 11:54:17;;;;;;;1.42;0.45;;;19.40;54.90;;;;;;6299160;28;20046;-66
2023/01/14 11:57:20;;;;;;;0.70;0.45;;;19.50;54.90;;;;;;6317592;28;20507;-67
2023/01/14 12:00:21;;;;;;;0.57;0.40;;;19.50;54.90;;;;;;6316561;28;20058;-66
2023/01/14 12:03:35;;;;;;;0.73;0.45;;;19.50;54.80;;;;;;6317218;28;20480;-67
2023/01/14 12:06:53;;;;;;;2.20;0.47;;;19.50;54.80;;;;;;6317537;28;20103;-67
2023/01/14 12:10:03;;;;;;;2.85;1.02;;;19.50;54.80;;;;;;6299958;28;20030;-67
2023/01/14 12:17:01;;;;;;;2.50;0.55;;;19.60;55.10;;;;;;6320393;28;20016;-66
2023/01/14 12:20:08;;;;;;;2.15;0.68;;;19.70;55.00;;;;;;6321126;28;20393;-66
2023/01/14 12:23:16;;;;;;;10.55;1.20;;;19.80;55.10;;;;;;6322063;28;20540;-64
2023/01/14 12:26:23;;;;;;;1.10;0.43;;;19.80;55.00;;;;;;6321062;28;20028;-67
2023/01/14 12:29:31;;;;;;;3.78;0.93;;;19.80;54.80;;;;;;6322060;28;20023;-66
2023/01/14 12:32:32;;;;;;;2.95;0.60;;;19.80;54.80;;;;;;6322244;28;20757;-67
2023/01/14 12:35:43;;;;;;;3.33;0.43;;;19.80;54.70;;;;;;6321581;28;20401;-66
2023/01/14 12:46:12;;;;;;;2.95;0.65;;;19.80;54.50;;;;;;6321745;28;20028;-66
2023/01/14 12:49:13;;;;;;;2.85;0.65;;;19.80;54.40;;;;;;6320743;28;20023;-66
2023/01/14 12:52:24;;;;;;;1.65;0.50;;;19.80;54.30;;;;;;6303614;28;20039;-67
2023/01/14 12:55:37;;;;;;;3.65;0.50;;;19.80;54.50;;;;;;6319581;28;20623;-66
2023/01/14 12:58:40;;;;;;;2.05;0.60;;;19.80;54.60;;;;;;6321110;28;20025;-66
2023/01/14 13:01:48;;;;;;;2.65;0.90;;;19.80;54.60;;;;;;6319910;28;20023;-67
2023/01/14 13:05:25;;;;;;;3.90;0.60;;;19.80;54.40;;;;;;6320297;28;20028;-66
2023/01/14 13:08:29;;;;;;;3.50;0.75;;;19.80;54.50;;;;;;6303654;28;20510;-66
2023/01/14 13:11:51;;;;;;;1.35;0.77;;;19.80;54.30;;;;;;6321422;28;20024;-67
2023/01/14 13:14:55;;;;;;;1.02;0.50;;;19.90;54.40;;;;;;6320477;28;20130;-66
2023/01/14 13:18:17;;;;;;;2.90;0.80;;;19.90;54.40;;;;;;6320968;28;20509;-67
2023/01/14 13:21:55;;;;;;;1.75;0.70;;;19.90;54.30;;;;;;6320858;28;20435;-66
2023/01/14 13:25:10;;;;;;;7.38;0.63;;;19.90;54.20;;;;;;6327301;28;20504;-66
2023/01/14 13:28:11;;;;;;;;;;;20.00;54.50;;;;;;6346752;28;20031;-65
2023/01/14 13:31:23;;;;;;;1.95;0.90;;;20.10;54.30;;;;;;6327925;28;19911;-66
2023/01/14 13:34:26;;;;;;;2.13;0.80;;;20.10;54.30;;;;;;6327316;28;20441;-66
2023/01/14 13:37:27;;;;;;;6.60;0.75;;;20.10;54.20;;;;;;6345842;28;20015;-66
2023/01/14 13:40:32;;;;;;;3.97;0.90;;;20.00;54.20;;;;;;6345830;28;20469;-66
2023/01/14 13:43:45;;;;;;;;;;;20.00;54.30;;;;;;6346246;28;20095;-67
2023/01/14 13:46:50;;;;;;;3.17;1.00;;;19.90;54.30;;;;;;6345224;28;19910;-67
2023/01/14 13:49:59;;;;;;;3.17;0.65;;;19.90;54.40;;;;;;6345601;28;20729;-65
2023/01/14 13:53:04;;;;;;;1.70;0.77;;;19.90;54.60;;;;;;6344873;28;20027;-67
2023/01/14 13:56:05;;;;;;;7.05;1.00;;;19.90;54.60;;;;;;6344704;28;20023;-66
2023/01/14 13:59:14;;;;;;;3.63;0.90;;;19.80;54.60;;;;;;6345782;28;20035;-66
2023/01/14 14:02:44;;;;;;;3.83;1.30;;;19.80;54.40;;;;;;6345570;28;20051;-67
2023/01/14 14:05:44;;;;;;;3.15;1.00;;;19.80;54.70;;;;;;6344591;28;20472;-67
2023/01/14 14:09:07;;;;;;;2.47;0.73;;;19.80;54.70;;;;;;6327083;28;20059;-67
2023/01/14 14:15:54;;;;;;;2.60;0.70;;;19.80;54.80;;;;;;6344381;28;20396;-66
2023/01/14 14:19:12;;;;;;;0.88;0.57;;;19.80;54.80;;;;;;6328063;28;20027;-67
2023/01/14 14:23:08;;;;;;;2.95;1.05;;;19.80;54.90;;;;;;6337111;28;20023;-68
2023/01/14 14:26:57;;;;;;;3.15;1.00;;;19.70;54.80;;;;;;6294356;28;20409;-68
2023/01/14 14:31:19;;;;;;;2.03;0.77;;;19.70;54.90;;;;;;6317965;28;20044;-68
2023/01/14 14:34:29;;;;;;;1.67;0.70;;;19.70;55.00;;;;;;6314045;28;20556;-68
2023/01/14 14:38:24;;;;;;;3.15;1.20;;;19.70;55.00;;;;;;6322894;28;20044;-67
2023/01/14 14:42:05;;;;;;;4.38;1.50;;;19.70;55.00;;;;;;6333909;28;20073;-68
2023/01/14 14:45:49;;;;;;;5.75;2.00;;;19.70;55.00;;;;;;6280433;28;20016;-68
2023/01/14 14:49:18;;;;;;;6.70;1.98;;;19.70;55.00;;;;;;6312402;28;20078;-68
2023/01/14 14:52:19;;;;;;;5.95;1.95;;;19.70;55.00;;;;;;6296981;28;20020;-68
2023/01/14 14:56:04;;;;;;;6.00;2.25;;;19.70;54.90;;;;;;6316019;28;20089;-68
2023/01/14 14:59:52;;;;;;;4.28;1.55;;;19.70;55.00;;;;;;6264319;28;20029;-68
2023/01/14 15:02:55;;;;;;;3.13;1.55;;;19.70;55.00;;;;;;6283433;28;20032;-68
2023/01/14 15:06:23;;;;;;;8.05;1.92;;;19.70;55.00;;;;;;6297993;28;20028;-68
2023/01/14 15:09:28;;;;;;;5.05;1.90;;;19.70;55.00;;;;;;6297185;28;20040;-69
2023/01/14 15:12:29;;;;;;;2.80;1.52;;;19.70;55.00;;;;;;6316615;28;20063;-68
2023/01/14 15:15:32;;;;;;;4.85;1.83;;;19.70;55.00;;;;;;6316621;28;20020;-70
2023/01/14 15:18:48;;;;;;;3.90;1.55;;;19.70;55.00;;;;;;6316517;28;20313;-68
2023/01/14 15:21:50;;;;;;;3.10;1.80;;;19.70;55.00;;;;;;6317178;28;20039;-68
2023/01/14 15:24:52;;;;;;;9.32;1.90;;;19.70;55.10;;;;;;6320305;28;20089;-68
2023/01/14 15:27:53;;;;;;;6.43;1.75;;;19.80;55.60;;;;;;6341194;28;20054;-68
2023/01/14 15:30:59;;;;;;;2.83;1.35;;;19.80;55.10;;;;;;6316796;28;20484;-68
2023/01/14 15:34:14;;;;;;;5.20;1.30;;;19.70;54.90;;;;;;6315943;28;20020;-68
2023/01/14 15:37:24;;;;;;;6.70;1.50;;;19.70;54.90;;;;;;6316927;28;20017;-69
2023/01/14 15:40:51;;;;;;;5.85;1.42;;;19.70;55.00;;;;;;6316129;28;20503;-68
2023/01/14 15:43:52;;;;;;;6.45;1.95;;;19.70;55.10;;;;;;6313364;28;20044;-69
2023/01/14 15:46:54;;;;;;;6.45;1.30;;;19.70;55.10;;;;;;6316337;28;20485;-69
2023/01/14 15:49:55;;;;;;;4.40;1.60;;;19.70;55.10;;;;;;6315829;28;20512;-68
2023/01/14 15:53:16;;;;;;;3.75;1.63;;;19.60;55.00;;;;;;6315396;28;20477;-68
2023/01/14 15:56:22;;;;;;;5.75;1.38;;;19.70;55.10;;;;;;6290975;28;20111;-68
2023/01/14 15:59:24;;;;;;;3.90;1.48;;;19.60;55.00;;;;;;6309103;28;20031;-68
2023/01/14 16:02:26;;;;;;;7.95;1.52;;;19.60;55.00;;;;;;6316837;28;20385;-69
2023/01/14 16:05:27;;;;;;;2.40;1.20;;;19.60;55.00;;;;;;6316212;28;20115;-68
2023/01/14 16:08:28;;;;;;;2.35;1.30;;;19.60;55.00;;;;;;6299438;28;20570;-68
2023/01/14 16:11:46;;;;;;;4.30;1.70;;;19.60;55.00;;;;;;6317352;28;20024;-68
2023/01/14 16:14:47;;;;;;;2.63;0.93;;;19.60;55.10;;;;;;6291234;28;20021;-68
2023/01/14 16:17:49;;;;;;;5.97;1.63;;;19.70;55.10;;;;;;6292596;28;20021;-69
2023/01/14 16:20:52;;;;;;;2.20;1.10;;;19.60;55.00;;;;;;6274542;28;20029;-68
2023/01/14 16:23:53;;;;;;;3.47;1.55;;;19.60;55.00;;;;;;6292047;28;20051;-68
2023/01/14 16:26:54;;;;;;;4.65;1.20;;;19.70;55.10;;;;;;6274554;28;20111;-68
2023/01/14 16:29:56;;;;;;;3.53;1.20;;;19.60;55.00;;;;;;6292050;28;20039;-68
2023/01/14 16:32:57;;;;;;;2.50;1.40;;;19.60;55.70;;;;;;6292602;28;20027;-68
2023/01/14 16:35:58;;;;;;;2.60;1.20;;;19.60;55.00;;;;;;6315860;28;20070;-68
2023/01/14 16:38:59;;;;;;;3.58;1.35;;;19.60;54.90;;;;;;6299044;28;20092;-68
2023/01/14 16:42:00;;;;;;;6.72;1.27;;;19.60;55.00;;;;;;6317505;28;20067;-68
2023/01/14 16:45:02;;;;;;;3.53;1.35;;;19.60;55.00;;;;;;6317047;28;20026;-69
2023/01/14 16:48:03;;;;;;;3.78;1.65;;;19.60;55.00;;;;;;6317224;28;20024;-68
2023/01/14 16:51:06;;;;;;;2.70;1.15;;;19.60;55.00;;;;;;6298804;28;20025;-68
2023/01/14 16:54:17;;;;;;;3.28;1.27;;;19.60;55.00;;;;;;6316941;28;20040;-68